Ana Sayfa
METAR-TAF:

METAR-TAF

Havaalanları :

Meierwik

Glücksburg, Almanya

Enlem: 54-50N, Boylam: 009-30E, yükseklik: 27 m

Güncel hava durumu gözlemi

Rapor saat 03:20 UTC de 17 dakika önce yapıldı.
Rüzgar batı/kuzeybatıdan 14 kt
Sıcaklık 3°C
Nem 87%
Basınç 1004 hPa

METAR: ETGG 280320Z AUTO 29014KT //// // ////// 03/01 Q1004 ///

Saat: 04:37 (03:37 UTC)


TAF: eksik

4.000'den fazla havaalanı için hava durumu gözlemleri ve tahminleri (METAR ve TAF raporları).

Kullanılabilir istasyonlar harita üzerinde sarı ve kırmızı noktalarla gösterilir.

İstasyonun adını görmek için fareyi noktanın üzerinde gezdirin.

Sonrasında hava gözlem ve tahminlerini görmek için tıklayın.

Haritayı değiştirmek için: yaklaştırmak için siyah artı işaretli yeşil düğmeye ve uzaklaştırmak için de eksi işaretli düğmeye hızla tıklayın; bitişik haritalar için yeşil okları kullanın.


METAR-TAF: